Quick Links (Output Below):   Max & Min Temps   /   Climate Reports   /   Zone Forecasts
River Forecasts   /   Forestry Forecasts   /   Aviation Forecasts   /   Radars   /   Features

Terminal Aerodrome Forecast (Fayetteville)

Pick a Site:
Arkadelphia | El Dorado | Fayetteville | Fort Smith | Harrison | Highfill | Hot Springs | Jonesboro
Little Rock | Monticello | Mountain Home | Pine Bluff | Texarkana
 Forecast 

KFYV 131140Z 1312/1412 06006KT P6SM SCT200
     FM131700 12008KT P6SM SCT250
     FM140300 14007KT P6SM SCT035 BKN250
     FM140500 15012KT P6SM BKN030
     FM140700 16011KT P6SM BKN022
     FM141000 16011KT 3SM -FZDZ BR BKN012=


 Latest METARs (Observations) 
How to Decode METARs
17Z KFYV 131653Z 10007KT 10SM CLR 03/M11 A3047 RMK AO2 SLP325
         T00281106
         
16Z KFYV 131553Z 10006KT 10SM CLR 01/M11 A3049 RMK AO2 SLP333
         T00061111
         
15Z KFYV 131453Z 07011KT 10SM CLR M01/M11 A3050 RMK AO2 SLP336
         T10061111 50010
         
14Z KFYV 131353Z 06004KT 10SM CLR M02/M13 A3050 RMK AO2 SLP337
         T10221133
         
13Z KFYV 131253Z 00000KT 10SM FEW110 M03/M11 A3049 RMK AO2 SLP333
         T10281111
         
12Z KFYV 131153Z 03006KT 10SM CLR M02/M11 A3047 RMK AO2 SLP324
         T10171106 10017 21017 56005
         
11Z KFYV 131053Z AUTO 04005KT 10SM CLR M02/M09 A3047 RMK AO2 SLP325
         T10171094
         
10Z KFYV 130953Z AUTO 05006KT 10SM FEW110 M01/M08 A3047 RMK AO2 SLP323
         T10111083
         
09Z KFYV 130853Z AUTO VRB05KT 10SM CLR M01/M08 A3048 RMK AO2 SLP326
         T10061083 53001
         
08Z KFYV 130753Z AUTO 06003KT 10SM CLR M01/M08 A3047 RMK AO2 SLP322
         T10061078
         
***** Today's Observations (Above) *****


Back to Main Page
http://www.srh.noaa.gov/lzk/qfcst.php

USA.gov is the U.S. government's official web portal to all federal, state and local government web resources and services.